• Join FlightAware (Why Join?)
  • Login
  • US Flag 
05:32AM EDT


 

Airport Tracker/Info


-or-


 

Live Flight TrackerFlight Track Log ✈ POT4778 ✈ 09-Aug-2012 ✈ KSWF - UMMS / MSQ

Flight Track Log - Related Links

Times and Time Zones

All times are in EDT time to prevent confusion due to time zone crossing. See the POT4778 flight status page for this flight to view local times or setup timezone preferences in your user account.

Time Position Orientation Groundspeed Altitude Reporting Facility
EDT Latitude Longitude Course Direction KTS MPH feet Rate Location/Type
10:22AM 41.4950 -74.1778 280° West 187 215 1,500  Level Boston Center
10:23AM 41.5025 -74.2361 33° Northeast 187 215 2,600 780 Climbing Boston Center
10:24AM 41.5553 -74.1906 44° Northeast 175 201 3,100 660 Climbing Boston Center
10:25AM 41.6106 -74.1200 60° Northeast 226 260 4,000 900 Climbing Boston Center
10:26AM 41.6514 -74.0236 58° Northeast 276 318 5,000 900 Climbing Boston Center
10:27AM 41.6922 -73.9358 59° Northeast 300 345 5,900 1,020 Climbing Boston Center
10:28AM 41.7394 -73.8283 60° Northeast 300 345 7,100 1,140 Climbing Boston Center
10:29AM 41.7781 -73.7403 61° Northeast 306 352 8,200 1,020 Climbing Boston Center
10:30AM 41.8231 -73.6297 60° Northeast 306 352 9,200 900 Climbing Boston Center
10:31AM 41.8617 -73.5383 49° Northeast 306 352 10,100 900 Climbing Boston Center
10:32AM 41.9250 -73.4389 North 306 352 11,100 900 Climbing Boston Center
10:33AM 42.0064 -73.4319 North 295 339 11,900 840 Climbing Boston Center
10:34AM 42.0939 -73.4222 North 305 351 12,800 840 Climbing Boston Center
10:35AM 42.1858 -73.4122 North 316 364 13,600 780 Climbing Boston Center
10:36AM 42.2775 -73.4025 North 322 371 14,400 780 Climbing Boston Center
10:37AM 42.3797 -73.3928 North 334 384 15,200 660 Climbing Boston Center
10:38AM 42.4736 -73.3831 North 334 384 15,800 660 Climbing Boston Center
10:39AM 42.5675 -73.3761 North 328 377 16,600 600 Climbing Boston Center
10:40AM 42.6614 -73.3689 North 334 384 17,000 420 Climbing Boston Center
10:41AM 42.7594 -73.3592 North 340 391 17,500 540 Climbing Boston Center
10:42AM 42.8489 -73.3519 North 351 404 18,100 600 Climbing Boston Center
10:43AM 42.9575 -73.3367 13° North 358 412 18,700 540 Climbing Boston Center
10:44AM 43.0556 -73.3067 358° North 353 406 19,200 420 Climbing Boston Center
10:45AM 43.1556 -73.3111 358° North 353 406 19,600 420 Climbing Boston Center
10:46AM 43.2578 -73.3153 10° North 353 406 20,100 360 Climbing Boston Center
10:47AM 43.3600 -73.2911 29° Northeast 360 414 20,400 300 Climbing Boston Center
10:48AM 43.4417 -73.2292 27° Northeast 360 414 20,800 480 Climbing Boston Center
10:49AM 43.5381 -73.1619 30° Northeast 370 426 21,400 540 Climbing Boston Center
10:50AM 43.6303 -73.0883 61° Northeast 375 432 21,900 420 Climbing Boston Center
10:51AM 43.6808 -72.9597 63° Northeast 359 413 22,300 300 Climbing Boston Center
10:52AM 43.7314 -72.8222 64° Northeast 378 435 22,600 300 Climbing Boston Center
10:53AM 43.7839 -72.6703 62° Northeast 391 450 23,000 300 Climbing Boston Center
10:54AM 43.8361 -72.5322 64° Northeast 391 450 23,200 960 Climbing Boston Center
10:55AM 43.8842 -72.3939 64° Northeast 391 450 25,000 300 Climbing Boston Center
10:56AM 43.9342 -72.2528 65° Northeast 397 457 23,900 -420 Descending Boston Center
10:57AM 43.9817 -72.1083 64° Northeast 402 463 24,200 300 Climbing Boston Center
10:58AM 44.0269 -71.9811 68° East 402 463 24,500 300 Climbing Boston Center
10:59AM 44.0700 -71.8306 65° Northeast 408 470 24,900 240 Climbing Boston Center
11:00AM 44.1253 -71.6681 67° East 413 475 25,000  Climbing Boston Center
11:01AM 44.1700 -71.5197 64° Northeast 419 482 25,000  Level Boston Center
11:02AM 44.2250 -71.3625 66° East 424 488 25,000  Level Boston Center
11:03AM 44.2756 -71.2050 65° Northeast 430 495 25,000  Level Boston Center
11:04AM 44.3278 -71.0472 66° East 437 503 25,000  Level Boston Center
11:05AM 44.3800 -70.8833 66° East 447 514 25,100  Climbing Boston Center
11:06AM 44.4319 -70.7192 65° Northeast 452 520 25,000  Descending Boston Center
11:07AM 44.4856 -70.5575 66° East 452 520 25,100  Climbing Boston Center
11:08AM 44.5389 -70.3897 66° East 457 526 25,000  Descending Boston Center
11:09AM 44.5922 -70.2217 66° East 463 533 25,100  Climbing Boston Center
11:10AM 44.6450 -70.0533 66° East 463 533 25,100 -60 Level Boston Center
11:11AM 44.6978 -69.8847 66° East 463 533 25,000 -60 Descending Boston Center
11:12AM 44.7500 -69.7186 66° East 463 533 25,000  Level Boston Center
11:13AM 44.7928 -69.5822 66° East 463 533 25,100  Climbing Boston Center
11:14AM 44.8506 -69.3978 66° East 463 533 25,100  Level Boston Center
11:15AM 44.9042 -69.2250 66° East 463 533 25,100  Level Boston Center
11:16AM 44.9556 -69.0578 67° East 463 533 25,100 -60 Level Boston Center
11:17AM 45.0067 -68.8844 67° East 463 533 25,000  Descending Boston Center
11:18AM 45.0578 -68.7167 66° East 463 533 25,100  Climbing Boston Center
11:19AM 45.1161 -68.5275 67° East 463 533 25,100  Level Boston Center
11:20AM 45.1664 -68.3564 67° East 463 533 25,100  Level Boston Center
11:21AM 45.2183 -68.1817 69° East 463 533 25,100 -60 Level Boston Center
11:22AM 45.2661 -68.0069 67° East 468 539 25,000  Descending Boston Center
11:23AM 45.3175 -67.8317 59° Northeast 468 539 25,100 300 Climbing Boston Center
11:24AM 45.3822 -67.6758 52° Northeast 463 533 25,600 480 Climbing Boston Center
11:25AM 45.4500 -67.5500 18° North 460 529 26,100 480 Climbing Moncton Center
11:25AM 45.4683 -67.5414 57° Northeast 457 526 26,100 480 Level Boston Center
11:26AM 45.5333 -67.4000 48° Northeast 450 518 26,600 420 Climbing Moncton Center
11:27AM 45.6167 -67.2667 51° Northeast 440 506 27,000 180 Climbing Moncton Center
11:28AM 45.6833 -67.1500 43° Northeast 450 518 27,000  Level Moncton Center
11:29AM 45.7833 -67.0167 51° Northeast 460 529 27,000  Level Moncton Center
11:30AM 45.8667 -66.8667 48° Northeast 460 529 27,000  Level Moncton Center
11:31AM 45.9500 -66.7333 51° Northeast 470 541 27,000  Level Moncton Center
11:32AM 46.0333 -66.5833 48° Northeast 470 541 27,000  Level Moncton Center
11:33AM 46.1167 -66.4500 42° Northeast 470 541 27,000  Level Moncton Center
11:34AM 46.2333 -66.3000 48° Northeast 480 552 27,000  Level Moncton Center
11:35AM 46.3167 -66.1667 54° Northeast 480 552 27,000  Level Moncton Center
11:36AM 46.4000 -66.0000 51° Northeast 480 552 27,000  Level Moncton Center
11:37AM 46.4833 -65.8500 48° Northeast 480 552 27,000  Level Moncton Center
11:38AM 46.5667 -65.7167 51° Northeast 480 552 27,000  Level Moncton Center
11:39AM 46.6500 -65.5667 51° Northeast 480 552 27,000  Level Moncton Center
11:40AM 46.7333 -65.4167 49° Northeast 480 552 27,000  Level Moncton Center
11:41AM 46.8333 -65.2500 51° Northeast 480 552 27,000  Level Moncton Center
11:42AM 46.9167 -65.1000 42° Northeast 480 552 27,000  Level Moncton Center
11:43AM 47.0167 -64.9667 51° Northeast 480 552 27,000  Level Moncton Center
11:44AM 47.1000 -64.8167 51° Northeast 480 552 27,000  Level Moncton Center
11:45AM 47.1833 -64.6667 51° Northeast 480 552 27,000  Level Moncton Center
11:46AM 47.2667 -64.5167 51° Northeast 480 552 27,000  Level Moncton Center
11:47AM 47.3500 -64.3667 53° Northeast 480 552 27,000  Level Moncton Center
11:48AM 47.4333 -64.2000 51° Northeast 480 552 27,000  Level Moncton Center
11:49AM 47.5167 -64.0500 45° Northeast 490 564 27,000  Level Moncton Center
11:50AM 47.6167 -63.9000 50° Northeast 480 552 27,000  Level Moncton Center
11:51AM 47.7000 -63.7500 56° Northeast 490 564 27,000  Level Moncton Center
11:52AM 47.7833 -63.5667 50° Northeast 490 564 27,000  Level Moncton Center
11:53AM 47.8667 -63.4167 50° Northeast 480 552 27,000  Level Moncton Center
11:54AM 47.9500 -63.2667 50° Northeast 490 564 27,000  Level Moncton Center
11:55AM 48.0333 -63.1167 50° Northeast 490 564 27,000  Level Moncton Center
11:56AM 48.1167 -62.9667 56° Northeast 490 564 27,000  Level Moncton Center
11:57AM 48.2000 -62.7833 50° Northeast 480 552 27,000  Level Moncton Center
11:58AM 48.2833 -62.6333 45° Northeast 490 564 27,000  Level Moncton Center
11:59AM 48.3833 -62.4833 50° Northeast 490 564 27,000  Level Moncton Center
12:00PM 48.4667 -62.3333 55° Northeast 490 564 27,000  Level Moncton Center
12:01PM 48.5500 -62.1500 47° Northeast 490 564 27,000  Level Moncton Center
12:02PM 48.6333 -62.0167 50° Northeast 490 564 27,000  Level Moncton Center
12:03PM 48.7333 -61.8333 61° Northeast 490 564 27,000  Level Moncton Center
12:04PM 48.8000 -61.6500 56° Northeast 490 564 27,100  Climbing Moncton Center
12:05PM 48.8667 -61.5000 55° Northeast 490 564 27,000 -60 Descending Moncton Center
12:06PM 48.9500 -61.3167 55° Northeast 490 564 27,000  Level Moncton Center
12:07PM 49.0333 -61.1333 59° Northeast 490 564 27,000  Level Moncton Center
12:08PM 49.1000 -60.9667 44° Northeast 500 575 27,100  Climbing Moncton Center
12:09PM 49.2000 -60.8167 52° Northeast 490 564 27,000  Descending Moncton Center
12:10PM 49.2833 -60.6500 47° Northeast 490 564 27,100  Climbing Moncton Center
12:11PM 49.3833 -60.4833 56° Northeast 490 564 27,100 -60 Level Moncton Center
12:12PM 49.4500 -60.3333 52° Northeast 490 564 27,000 -60 Descending Moncton Center
12:13PM 49.5333 -60.1667 50° Northeast 480 552 27,000  Level Moncton Center
12:14PM 49.6333 -59.9833 65° Northeast 480 552 27,000  Level Moncton Center
12:15PM 49.6833 -59.8167 52° Northeast 480 552 27,000  Level Moncton Center
12:16PM 49.7667 -59.6500 61° Northeast 480 552 27,000  Level Moncton Center
12:17PM 49.8333 -59.4667 52° Northeast 480 552 27,000  Level Moncton Center
12:18PM 49.9167 -59.3000 60° Northeast 490 564 27,100  Climbing Moncton Center
12:19PM 49.9833 -59.1167 44° Northeast 490 564 27,100 -60 Level Moncton Center
12:20PM 50.0833 -58.9667 40° Northeast 480 552 27,000 -60 Descending Moncton Center
12:21PM 50.1833 -58.8333 55° Northeast 490 564 27,000  Level Moncton Center
12:22PM 50.2667 -58.6500 40° Northeast 480 552 27,100  Climbing Moncton Center
12:23PM 50.3667 -58.5167 44° Northeast 490 564 27,100 -60 Level Moncton Center
12:24PM 50.4667 -58.3667 44° Northeast 490 564 27,000 180 Descending Moncton Center
12:25PM 50.5000 -58.3167 48° Northeast 490 564 27,400 900 Climbing Gander Center
12:25PM 50.5667 -58.2000 44° Northeast 480 552 28,000 960 Climbing Gander Center
12:26PM 50.6000 -58.1500 38° Northeast 480 552 28,400 1,080 Climbing Gander Center
12:26PM 50.6667 -58.0667 52° Northeast 460 529 29,100 360 Climbing Gander Center
12:27PM 50.7333 -57.9333 46° Northeast 460 529 29,000 -60 Descending Gander Center
12:28PM 50.8333 -57.7667 41° Northeast 470 541 29,000  Level Gander Center
12:29PM 50.9167 -57.6500 43° Northeast 470 541 29,000  Level Moncton Center
12:30PM 51.0167 -57.5000 46° Northeast 480 552 29,000 60 Level Moncton Center
12:31PM 51.0667 -57.4167 40° Northeast 480 552 29,100 60 Climbing Gander Center
12:31PM 51.1167 -57.3500 90° East 480 552 29,100  Level Moncton Center
12:31PM 51.1167 -57.3333 40° Northeast 480 552 29,100 -120 Level Gander Center
12:32PM 51.2167 -57.2000 46° Northeast 490 564 29,000 -60 Descending Gander Center
12:33PM 51.3167 -57.0333 54° Northeast 490 564 29,000  Level Gander Center
12:34PM 51.4000 -56.8500 36° Northeast 490 564 29,100  Climbing Gander Center
12:35PM 51.5000 -56.7333 43° Northeast 490 564 29,000 -60 Descending Moncton Center
12:36PM 51.6000 -56.5833 40° Northeast 480 552 29,000 60 Level Moncton Center
12:37PM 51.6500 -56.5167 65° Northeast 490 564 29,100 60 Climbing Gander Center
12:37PM 51.6833 -56.4000 32° Northeast 480 552 29,100 -120 Level Gander Center
12:38PM 51.7167 -56.3667 46° Northeast 480 552 29,000 -120 Descending Gander Center
12:39PM 51.8167 -56.2000 43° Northeast 480 552 29,000 60 Level Gander Center
12:39PM 51.8833 -56.1000 43° Northeast 490 564 29,100  Climbing Gander Center
12:40PM 51.9167 -56.0500 48° Northeast 480 552 29,000  Descending Gander Center
12:41PM 52.0000 -55.9000 47° Northeast 500 575 29,100 60 Climbing Gander Center
12:41PM 52.0667 -55.7833 43° Northeast 500 575 29,100  Level Moncton Center
12:42PM 52.1667 -55.6333 43° Northeast 480 552 29,100  Level Gander Center
12:43PM 52.2000 -55.5833 48° Northeast 490 564 29,100 -120 Level Gander Center
12:44PM 52.3000 -55.4000 48° Northeast 490 564 29,000 -60 Descending Gander Center
12:45PM 52.3833 -55.2500 47° Northeast 480 552 29,000  Level Gander Center
12:45PM 52.4500 -55.1333 31° Northeast 480 552 29,000  Level Gander Center
12:46PM 52.4833 -55.1000 47° Northeast 480 552 29,000  Level Gander Center
12:46PM 52.5500 -54.9833 53° Northeast 480 552 29,000 60 Level Gander Center
12:47PM 52.6333 -54.8000 40° Northeast 490 564 29,100  Climbing Gander Center
12:48PM 52.7167 -54.6833 39° Northeast 490 564 29,000 -120 Descending Gander Center
12:49PM 52.7667 -54.6167 65° Northeast 490 564 29,000  Level Gander Center
12:49PM 52.8000 -54.5000 42° Northeast 490 564 29,000 60 Level Gander Center
12:50PM 52.9000 -54.3500 48° Northeast 490 564 29,100  Climbing Gander Center
12:51PM 53.0000 -54.1667 45° Northeast 490 564 29,100  Level Gander Center
12:52PM 53.1000 -54.0000 53° Northeast 490 564 29,100 -60 Level Gander Center
12:53PM 53.1833 -53.8167 56° Northeast 500 575 29,000 -60 Descending Gander Center
12:54PM 53.2500 -53.6500 45° Northeast 500 575 29,000  Level Gander Center
12:55PM 53.3500 -53.4833 53° Northeast 490 564 29,100  Climbing Gander Center
12:56PM 53.4333 -53.3000 53° Northeast 490 564 29,100  Level Gander Center
12:57PM 53.5167 -53.1167 47° Northeast 500 575 29,100  Level Gander Center
12:58PM 53.6167 -52.9333 55° Northeast 500 575 29,100  Level Gander Center
12:59PM 53.7000 -52.7333 47° Northeast 500 575 29,100  Level Gander Center
01:00PM 53.7833 -52.5833 52° Northeast 500 575 29,100  Level Gander Center
01:01PM 53.8667 -52.4000 50° Northeast 510 587 29,100  Level Gander Center
01:02PM 53.9167 -52.3000 50° Northeast 510 587 29,100  Level Gander Center
01:03PM 54.0000 -52.1333 50° Northeast 500 575 29,100  Level Gander Center
01:03PM 54.0667 -52.0000 52° Northeast 510 587 29,100  Level Gander Center
01:04PM 54.1500 -51.8167 54° Northeast 510 587 29,100  Level Gander Center
01:05PM 54.2333 -51.6167 52° Northeast 510 587 29,100 -60 Level Gander Center
01:06PM 54.3167 -51.4333 54° Northeast 510 587 29,000  Descending Gander Center
01:07PM 54.4000 -51.2333 49° Northeast 510 587 29,100 60 Climbing Gander Center
01:08PM 54.4333 -51.1667 41° Northeast 510 587 29,100  Level Gander Center
01:08PM 54.5000 -51.0667 52° Northeast 510 587 29,100 -120 Level Gander Center
01:09PM 54.5833 -50.8833 60° Northeast 510 587 29,000 -120 Descending Gander Center
01:10PM 54.6167 -50.7833 49° Northeast 510 587 29,000 60 Level Gander Center
01:11PM 54.7000 -50.6167 57° Northeast 500 575 29,100 60 Climbing Gander Center
01:11PM 54.7500 -50.4833 60° Northeast 500 575 29,100 -120 Level Gander Center
01:12PM 54.8167 -50.2833 37° Northeast 500 575 29,000 -120 Descending Gander Center
01:13PM 54.8667 -50.2167 49° Northeast 490 564 29,000  Level Gander Center
01:13PM 54.9167 -50.1167 39° Northeast 490 564 29,000  Level Gander Center
01:15PM 55.0000 -50.0000 50° Northeast 505 581 29,000  Level ETMS Enhanced Traffic Management System
02:06PM 59.0000 -40.0000 75° East 477 549 30,000  Climbing ETMS Enhanced Traffic Management System
02:48PM 60.2534 -28.6134 250° West  Level FlightAware Approximate
02:48PM 60.0000 -30.0000 74° East 451 519 30,000  Level ETMS Enhanced Traffic Management System
02:49PM 60.2913 -28.3762 80° East  Level FlightAware Approximate
02:50PM 60.3287 -28.1384 82° East  Level FlightAware Approximate
02:51PM 60.3657 -27.9001 83° East  Level FlightAware Approximate
02:52PM 60.4023 -27.6612 86° East  Level FlightAware Approximate
02:56PM 60.4346 -26.5726 77° East 451 519 30,000  Level FlightAware Transoceanic
02:57PM 60.4623 -26.3244 77° East 451 519 30,000  Level FlightAware Transoceanic
02:58PM 60.4894 -26.0758 78° East 451 519 30,000  Level FlightAware Transoceanic
02:59PM 60.5162 -25.8268 78° East 451 519 30,000  Level FlightAware Transoceanic
03:00PM 60.5424 -25.5774 78° East 451 519 30,000  Level FlightAware Transoceanic
03:01PM 60.5682 -25.3275 78° East 451 519 30,000  Level FlightAware Transoceanic
03:02PM 60.5935 -25.0773 78° East 451 519 30,000  Level FlightAware Transoceanic
03:03PM 60.6184 -24.8267 79° East 451 519 30,000  Level FlightAware Transoceanic
03:04PM 60.6427 -24.5757 79° East 451 519 30,000  Level FlightAware Transoceanic
03:05PM 60.6666 -24.3244 79° East 451 519 30,000  Level FlightAware Transoceanic
03:06PM 60.6901 -24.0726 79° East 451 519 30,000  Level FlightAware Transoceanic
03:07PM 60.7130 -23.8205 80° East 451 519 30,000  Level FlightAware Transoceanic
03:08PM 60.7355 -23.5681 80° East 451 519 30,000  Level FlightAware Transoceanic
03:09PM 60.7575 -23.3152 80° East 451 519 30,000  Level FlightAware Transoceanic
03:10PM 60.7791 -23.0621 80° East 451 519 30,000  Level FlightAware Transoceanic
03:11PM 60.8001 -22.8086 80° East 451 519 30,000  Level FlightAware Transoceanic
03:12PM 60.8207 -22.5548 81° East 451 519 30,000  Level FlightAware Transoceanic
03:13PM 60.8408 -22.3006 81° East 451 519 30,000  Level FlightAware Transoceanic
03:14PM 60.8604 -22.0462 81° East 451 519 30,000  Level FlightAware Transoceanic
03:15PM 60.8796 -21.7914 81° East 451 519 30,000  Level FlightAware Transoceanic
03:16PM 60.8982 -21.5364 82° East 451 519 30,000  Level FlightAware Transoceanic
03:17PM 60.9164 -21.2810 82° East 451 519 30,000  Level FlightAware Transoceanic
03:18PM 60.9341 -21.0253 82° East 451 519 30,000  Level FlightAware Transoceanic
03:19PM 60.9513 -20.7694 82° East 451 519 30,000  Level FlightAware Transoceanic
03:20PM 60.9680 -20.5132 82° East 451 519 30,000  Level FlightAware Transoceanic
03:21PM 60.9842 -20.2567 74° East 451 519 30,000  Level FlightAware Transoceanic
03:22PM 61.0177 -20.0114 80° East  Level FlightAware Approximate
03:23PM 61.0386 -19.7599 80° East  Level FlightAware Approximate
03:24PM 61.0589 -19.5081 81° East  Level FlightAware Approximate
03:25PM 61.0788 -19.2560 81° East  Level FlightAware Approximate
03:26PM 61.0982 -19.0035 81° East  Level FlightAware Approximate
03:27PM 61.1172 -18.7508 81° East  Level FlightAware Approximate
03:28PM 61.1357 -18.4978 82° East  Level FlightAware Approximate
03:29PM 61.1537 -18.2444 82° East  Level FlightAware Approximate
03:30PM 61.1712 -17.9908 82° East  Level FlightAware Approximate
03:31PM 61.1882 -17.7369 82° East  Level FlightAware Approximate
03:32PM 61.2048 -17.4827 82° East  Level FlightAware Approximate
03:33PM 61.2209 -17.2283 83° East  Level FlightAware Approximate
03:34PM 61.2365 -16.9736 83° East  Level FlightAware Approximate
03:35PM 61.2517 -16.7187 83° East  Level FlightAware Approximate
03:36PM 61.2663 -16.4635 83° East  Level FlightAware Approximate
03:37PM 61.2805 -16.2081 84° East  Level FlightAware Approximate
03:38PM 61.2943 -15.9525 84° East  Level FlightAware Approximate
03:39PM 61.3075 -15.6966 84° East  Level FlightAware Approximate
03:40PM 61.3202 -15.4405 84° East  Level FlightAware Approximate
03:41PM 61.3325 -15.1842 84° East  Level FlightAware Approximate
03:42PM 61.3442 -14.9278 85° East  Level FlightAware Approximate
03:43PM 61.3555 -14.6711 85° East  Level FlightAware Approximate
03:44PM 61.3663 -14.4143 85° East  Level FlightAware Approximate
03:45PM 61.3767 -14.1573 85° East  Level FlightAware Approximate
03:46PM 61.3865 -13.9001 86° East  Level FlightAware Approximate
03:47PM 61.3959 -13.6427 86° East  Level FlightAware Approximate
03:48PM 61.4048 -13.3853 86° East  Level FlightAware Approximate
03:49PM 61.4131 -13.1276 86° East  Level FlightAware Approximate
03:50PM 61.4210 -12.8699 86° East  Level FlightAware Approximate
03:51PM 61.4284 -12.6120 87° East  Level FlightAware Approximate
03:52PM 61.4354 -12.3539 87° East  Level FlightAware Approximate
03:53PM 61.4418 -12.0958 87° East  Level FlightAware Approximate
03:54PM 61.4477 -11.8376 87° East  Level FlightAware Approximate
03:55PM 61.4532 -11.5793 88° East  Level FlightAware Approximate
03:56PM 61.4582 -11.3209 88° East  Level FlightAware Approximate
03:57PM 61.4626 -11.0624 88° East  Level FlightAware Approximate
03:58PM 61.4666 -10.8038 92° East  Level FlightAware Approximate
03:59PM 61.4623 -10.5453 92° East  Level FlightAware Approximate
04:00PM 61.4576 -10.2868 92° East  Level FlightAware Approximate
04:01PM 61.4523 -10.0285 93° East  Level FlightAware Approximate
04:02PM 61.4465 -9.7702 93° East  Level FlightAware Approximate
04:03PM 61.4403 -9.5120 93° East  Level FlightAware Approximate
04:04PM 61.4336 -9.2539 93° East  Level FlightAware Approximate
04:05PM 61.4263 -8.9960 93° East  Level FlightAware Approximate
04:06PM 61.4186 -8.7381 94° East  Level FlightAware Approximate
04:07PM 61.4104 -8.4804 94° East  Level FlightAware Approximate
04:08PM 61.4018 -8.2228 94° East  Level FlightAware Approximate
04:09PM 61.3926 -7.9654 94° East  Level FlightAware Approximate
04:10PM 61.3829 -7.7082 95° East  Level FlightAware Approximate
04:11PM 61.3728 -7.4511 95° East  Level FlightAware Approximate
04:12PM 61.3622 -7.1941 95° East  Level FlightAware Approximate
04:13PM 61.3511 -6.9374 95° East  Level FlightAware Approximate
04:14PM 61.3395 -6.6808 95° East  Level FlightAware Approximate
04:15PM 61.3274 -6.4244 96° East  Level FlightAware Approximate
04:16PM 61.3148 -6.1683 96° East  Level FlightAware Approximate
04:17PM 61.3018 -5.9123 96° East  Level FlightAware Approximate
04:18PM 61.2883 -5.6566 96° East  Level FlightAware Approximate
04:19PM 61.2743 -5.4011 97° East  Level FlightAware Approximate
04:20PM 61.2598 -5.1458 97° East  Level FlightAware Approximate
04:21PM 61.2448 -4.8907 97° East  Level FlightAware Approximate
04:22PM 61.2294 -4.6359 97° East  Level FlightAware Approximate
04:23PM 61.2135 -4.3814 98° East  Level FlightAware Approximate
04:24PM 61.1971 -4.1271 98° East  Level FlightAware Approximate
04:25PM 61.1802 -3.8730 98° East  Level FlightAware Approximate
04:26PM 61.1629 -3.6193 98° East  Level FlightAware Approximate
04:27PM 61.1451 -3.3658 98° East  Level FlightAware Approximate
04:28PM 61.1268 -3.1127 99° East  Level FlightAware Approximate
04:29PM 61.1080 -2.8598 99° East  Level FlightAware Approximate
04:30PM 61.0888 -2.6072 99° East  Level FlightAware Approximate
04:31PM 61.0691 -2.3550 99° East  Level FlightAware Approximate
04:32PM 61.0489 -2.1030 100° East  Level FlightAware Approximate
04:33PM 61.0282 -1.8514 100° East  Level FlightAware Approximate
04:34PM 61.0071 -1.6001 100° East  Level FlightAware Approximate
04:35PM 60.9855 -1.3492 100° East  Level FlightAware Approximate
04:36PM 60.9635 -1.0985 100° East  Level FlightAware Approximate
04:37PM 60.9410 -0.8483 101° East  Level FlightAware Approximate
04:38PM 60.9180 -0.5984 102° East  Level FlightAware Approximate
04:39PM 60.8925 -0.3497 102° East  Level FlightAware Approximate
04:40PM 60.8666 -0.1014 102° East  Level FlightAware Approximate
04:41PM 60.8402 0.1464 102° East  Level FlightAware Approximate
04:42PM 60.8134 0.3939 103° East  Level FlightAware Approximate
04:43PM 60.7861 0.6409 103° East  Level FlightAware Approximate
04:44PM 60.7583 0.8876 103° East  Level FlightAware Approximate
04:45PM 60.7301 1.1337 103° East  Level FlightAware Approximate
04:46PM 60.7014 1.3795 104° East  Level FlightAware Approximate
04:47PM 60.6723 1.6248 104° East  Level FlightAware Approximate
04:48PM 60.6428 1.8697 104° East  Level FlightAware Approximate
04:49PM 60.6128 2.1141 104° East  Level FlightAware Approximate
04:50PM 60.5823 2.3580 104° East  Level FlightAware Approximate
04:51PM 60.5514 2.6015 105° East  Level FlightAware Approximate
04:52PM 60.5201 2.8445 105° East  Level FlightAware Approximate
04:53PM 60.4883 3.0871 105° East  Level FlightAware Approximate
04:54PM 60.4561 3.3292 105° East  Level FlightAware Approximate
04:55PM 60.4235 3.5707 105° East  Level FlightAware Approximate
04:56PM 60.3904 3.8119 106° East  Level FlightAware Approximate
04:57PM 60.3569 4.0525 106° East  Level FlightAware Approximate
04:58PM 60.3229 4.2926 106° East  Level FlightAware Approximate
04:59PM 60.2885 4.5322 106° East  Level FlightAware Approximate
05:00PM 60.2537 4.7713 106° East  Level FlightAware Approximate
05:01PM 60.2185 5.0099 107° East  Level FlightAware Approximate
05:02PM 60.1828 5.2480 107° East  Level FlightAware Approximate
05:03PM 60.1467 5.4855 107° East  Level FlightAware Approximate
05:04PM 60.1102 5.7225 107° East  Level FlightAware Approximate
05:05PM 60.0732 5.9591 107° East  Level FlightAware Approximate
05:06PM 60.0359 6.1950 108° East  Level FlightAware Approximate
05:07PM 59.9981 6.4305 108° East  Level FlightAware Approximate
05:08PM 59.9599 6.6654 108° East  Level FlightAware Approximate
05:09PM 59.9213 6.8997 108° East  Level FlightAware Approximate
05:10PM 59.8822 7.1335 109° East  Level FlightAware Approximate
05:11PM 59.8428 7.3668 109° East  Level FlightAware Approximate
05:12PM 59.8029 7.5995 109° East  Level FlightAware Approximate
05:13PM 59.7627 7.8316 109° East  Level FlightAware Approximate
05:14PM 59.7220 8.0632 109° East  Level FlightAware Approximate
05:15PM 59.6809 8.2942 110° East  Level FlightAware Approximate
05:16PM 59.6394 8.5246 110° East  Level FlightAware Approximate
05:17PM 59.5975 8.7545 110° East  Level FlightAware Approximate
05:18PM 59.5552 8.9838 110° East  Level FlightAware Approximate
05:19PM 59.5125 9.2125 110° East  Level FlightAware Approximate
05:20PM 59.4695 9.4407 111° Southeast  Level FlightAware Approximate
05:21PM 59.4260 9.6682 111° Southeast  Level FlightAware Approximate
05:22PM 59.3821 9.8952 111° Southeast  Level FlightAware Approximate
05:23PM 59.3378 10.1216 111° Southeast  Level FlightAware Approximate
05:24PM 59.2931 10.3474 111° Southeast  Level FlightAware Approximate
05:25PM 59.2481 10.5725 111° Southeast  Level FlightAware Approximate
05:26PM 59.2026 10.7971 112° Southeast  Level FlightAware Approximate
05:27PM 59.1568 11.0211 112° Southeast  Level FlightAware Approximate
05:28PM 59.1106 11.2445 112° Southeast  Level FlightAware Approximate
05:29PM 59.0640 11.4673 112° Southeast  Level FlightAware Approximate
05:30PM 59.0170 11.6895 112° Southeast  Level FlightAware Approximate
05:31PM 58.9696 11.9111 113° Southeast  Level FlightAware Approximate
05:32PM 58.9219 12.1320 113° Southeast  Level FlightAware Approximate
05:33PM 58.8738 12.3524 113° Southeast  Level FlightAware Approximate
05:34PM 58.8253 12.5721 113° Southeast  Level FlightAware Approximate
05:35PM 58.7764 12.7912 113° Southeast  Level FlightAware Approximate
05:36PM 58.7272 13.0097 114° Southeast  Level FlightAware Approximate
05:37PM 58.6776 13.2276 114° Southeast  Level FlightAware Approximate
05:38PM 58.6277 13.4449 114° Southeast  Level FlightAware Approximate
05:39PM 58.5773 13.6615 114° Southeast  Level FlightAware Approximate
05:40PM 58.5266 13.8775 114° Southeast  Level FlightAware Approximate
05:41PM 58.4756 14.0929 114° Southeast  Level FlightAware Approximate
05:42PM 58.4242 14.3077 115° Southeast  Level FlightAware Approximate
05:43PM 58.3724 14.5218 115° Southeast  Level FlightAware Approximate
05:44PM 58.3203 14.7353 115° Southeast  Level FlightAware Approximate
05:45PM 58.2678 14.9482 115° Southeast  Level FlightAware Approximate
05:46PM 58.2150 15.1604 116° Southeast  Level FlightAware Approximate
05:47PM 58.1612 15.3715 116° Southeast  Level FlightAware Approximate
05:48PM 58.1071 15.5819 116° Southeast  Level FlightAware Approximate
05:49PM 58.0526 15.7917 116° Southeast  Level FlightAware Approximate
05:50PM 57.9978 16.0009 116° Southeast  Level FlightAware Approximate
05:51PM 57.9426 16.2094 117° Southeast  Level FlightAware Approximate
05:52PM 57.8872 16.4173 117° Southeast  Level FlightAware Approximate
05:53PM 57.8313 16.6245 117° Southeast  Level FlightAware Approximate
05:54PM 57.7752 16.8311 117° Southeast  Level FlightAware Approximate
05:55PM 57.7187 17.0371 117° Southeast  Level FlightAware Approximate
05:56PM 57.6618 17.2424 117° Southeast  Level FlightAware Approximate
05:57PM 57.6047 17.4470 118° Southeast  Level FlightAware Approximate
05:58PM 57.5472 17.6510 118° Southeast  Level FlightAware Approximate
05:59PM 57.4894 17.8544 118° Southeast  Level FlightAware Approximate
06:00PM 57.4312 18.0571 118° Southeast  Level FlightAware Approximate
06:01PM 57.3727 18.2592 118° Southeast  Level FlightAware Approximate
06:02PM 57.3140 18.4606 118° Southeast  Level FlightAware Approximate
06:03PM 57.2548 18.6614 119° Southeast  Level FlightAware Approximate
06:04PM 57.1954 18.8616 119° Southeast  Level FlightAware Approximate
06:05PM 57.1357 19.0611 119° Southeast  Level FlightAware Approximate
06:06PM 57.0756 19.2599 119° Southeast  Level FlightAware Approximate
06:07PM 57.0152 19.4581 119° Southeast  Level FlightAware Approximate
06:08PM 56.9545 19.6557 119° Southeast  Level FlightAware Approximate
06:09PM 56.8935 19.8526 120° Southeast  Level FlightAware Approximate
06:10PM 56.8322 20.0489 120° Southeast  Level FlightAware Approximate
06:11PM 56.7706 20.2445 120° Southeast  Level FlightAware Approximate
06:12PM 56.7087 20.4395 120° Southeast  Level FlightAware Approximate
06:13PM 56.6465 20.6339 120° Southeast  Level FlightAware Approximate
06:14PM 56.5839 20.8276 120° Southeast  Level FlightAware Approximate
06:15PM 56.5211 21.0206 121° Southeast  Level FlightAware Approximate
06:16PM 56.4580 21.2131 121° Southeast  Level FlightAware Approximate
06:17PM 56.3945 21.4049 121° Southeast  Level FlightAware Approximate
06:18PM 56.3308 21.5960 121° Southeast  Level FlightAware Approximate
06:19PM 56.2668 21.7865 121° Southeast  Level FlightAware Approximate
06:20PM 56.2025 21.9764 121° Southeast  Level FlightAware Approximate
06:21PM 56.1379 22.1656 122° Southeast  Level FlightAware Approximate
06:22PM 56.0730 22.3542 122° Southeast  Level FlightAware Approximate
06:23PM 56.0079 22.5422 122° Southeast  Level FlightAware Approximate
06:24PM 55.9424 22.7295 122° Southeast  Level FlightAware Approximate
06:25PM 55.8767 22.9162 122° Southeast  Level FlightAware Approximate
06:26PM 55.8107 23.1023 122° Southeast  Level FlightAware Approximate
06:27PM 55.7444 23.2877 123° Southeast  Level FlightAware Approximate
06:28PM 55.6778 23.4725 123° Southeast  Level FlightAware Approximate
06:29PM 55.6109 23.6567 123° Southeast  Level FlightAware Approximate
06:30PM 55.5438 23.8402 123° Southeast  Level FlightAware Approximate
06:31PM 55.4764 24.0231 123° Southeast  Level FlightAware Approximate
06:32PM 55.4087 24.2054 123° Southeast  Level FlightAware Approximate
06:33PM 55.3408 24.3871 123° Southeast  Level FlightAware Approximate
06:34PM 55.2726 24.5681 124° Southeast  Level FlightAware Approximate
06:35PM 55.2041 24.7485 124° Southeast  Level FlightAware Approximate
06:36PM 55.1354 24.9283 124° Southeast  Level FlightAware Approximate
06:37PM 55.0663 25.1075 124° Southeast  Level FlightAware Approximate
06:38PM 54.9971 25.2861 108° East  Level FlightAware Approximate
06:39PM 54.9604 25.4790 125° Southeast  Level FlightAware Approximate
06:40PM 54.8887 25.6542 126° Southeast  Level FlightAware Approximate
06:41PM 54.8154 25.8270 126° Southeast  Level FlightAware Approximate
06:42PM 54.7434 26.0011 126° Southeast  Level FlightAware Approximate
06:43PM 54.6711 26.1746 126° Southeast  Level FlightAware Approximate
06:44PM 54.5991 26.3481 126° Southeast  Level FlightAware Approximate
06:45PM 54.5263 26.5203 126° Southeast  Level FlightAware Approximate
06:46PM 54.4532 26.6919 126° Southeast  Level FlightAware Approximate
06:47PM 54.3799 26.8629 126° Southeast  Level FlightAware Approximate
06:48PM 54.3070 27.0340 126° Southeast  Level FlightAware Approximate
06:49PM 54.2343 27.2051 127° Southeast  Level FlightAware Approximate
06:50PM 54.1598 27.3737 126° Southeast  Level FlightAware Approximate
06:51PM 54.0869 27.5431 124° Southeast  Level FlightAware Approximate
06:52PM 54.0207 27.7129 130° Southeast  Level FlightAware Approximate
06:53PM 53.9414 27.8734 131° Southeast  Level FlightAware Approximate
06:54PM 53.8667 28.0167 28° Northeast  Level FlightAware Approximate
06:55PM 53.9761 28.1143 297° West  Level Estimated
06:56PM 54.2730 27.1131 127° Southeast  Level FlightAware Approximate
06:57PM 54.1989 27.2824 127° Southeast  Level FlightAware Approximate
06:58PM 54.1246 27.4510 127° Southeast  Level FlightAware Approximate
06:59PM 54.0500 27.6190 127° Southeast  Level FlightAware Approximate
07:00PM 53.9752 27.7864 128° Southeast  Level FlightAware Approximate
07:01PM 53.8991 27.9518 110° East  Level FlightAware Approximate
07:02PM 53.8574 28.1490 290° West  Level Estimated
07:03PM 53.8991 27.9518 110° East  Level Estimated
07:04PM 53.8574 28.1490 290° West  Level Estimated
07:05PM 53.8991 27.9518 130° Southeast  Level Estimated
07:06PM 53.8667 28.0167 28° Northeast  Level FlightAware Approximate
07:07PM 53.9761 28.1143 208° Southwest  Level Estimated
07:08PM 53.8667 28.0167 28° Northeast  Level FlightAware Approximate
07:09PM 53.9761 28.1143 208° Southwest  Level Estimated
07:10PM 53.8667 28.0167 28° Northeast  Level FlightAware Approximate
07:11PM 53.9761 28.1143 208° Southwest  Level Estimated
07:12PM 53.8667 28.0167 28° Northeast  Level FlightAware Approximate
07:13PM 53.9761 28.1143 208° Southwest  Level Estimated
07:14PM 53.8667 28.0167 28° Northeast  Level FlightAware Approximate
07:15PM 53.9761 28.1143 208° Southwest  Level Estimated
07:16PM 53.8667 28.0167 28° Northeast  Level FlightAware Approximate
07:17PM 53.9761 28.1143 208° Southwest  Level Estimated
07:18PM 53.8667 28.0167 28° Northeast  Level FlightAware Approximate
07:19PM 53.9761 28.1143 208° Southwest  Level Estimated
07:20PM 53.8667 28.0167 28° Northeast  Level FlightAware Approximate
07:21PM 53.9761 28.1143 208° Southwest  Level Estimated
07:22PM 53.8667 28.0167 208° Southwest  Level FlightAware Approximate